EXS1641 EGSS-LGSK
Flight info
| Callsign | EXS1641 |
|---|---|
| Flight time | N/A |
| Altitude | 39000 |
| Route | CLN M84 KONAN DCT KOK DCT SISGA DCT RITAX DCT KRH DCT KUNOD DCT GEDSO DCT VEKEN DCT TUPUS DCT MONID DCT RIVUS DCT RUDAR DCT MEDUX UM867 KOGAT DCT ERANA UL737 TSL UL617 IBIDI |
| Aircraft | B738/M-SDE2E3FGHIRWXY/LB1 |
Departure
| Time | N/A |
|---|---|
| Airport | London Stansted Airport (EGSS) |
Arrival
| Time | 2026-05-01 09:13 |
|---|---|
| Airport | Skiathos Island National Airport (LGSK) |
| Time | Latitude | Longitude | Altitude | Speed | Heading |
|---|---|---|---|---|---|
| 2026-05-01 07:23 | 47.93363 | 10.36486 | 39093 ft | 450 kts | 126° |
| 2026-05-01 07:24 | 47.87432 | 10.47230 | 39099 ft | 450 kts | 126° |
| 2026-05-01 07:24 | 47.83452 | 10.54418 | 39099 ft | 450 kts | 126° |
| 2026-05-01 07:25 | 47.79463 | 10.61600 | 39095 ft | 450 kts | 125° |
| 2026-05-01 07:25 | 47.75466 | 10.68779 | 39081 ft | 451 kts | 126° |
| 2026-05-01 07:26 | 47.71465 | 10.75944 | 39079 ft | 451 kts | 126° |
| 2026-05-01 07:26 | 47.67485 | 10.83054 | 39090 ft | 451 kts | 126° |
| 2026-05-01 07:27 | 47.63474 | 10.90202 | 39092 ft | 451 kts | 126° |
| 2026-05-01 07:27 | 47.59451 | 10.97351 | 39131 ft | 452 kts | 125° |
| 2026-05-01 07:28 | 47.55420 | 11.04495 | 39111 ft | 452 kts | 125° |
| 2026-05-01 07:28 | 47.51410 | 11.11584 | 39121 ft | 452 kts | 125° |
| 2026-05-01 07:29 | 47.47366 | 11.18714 | 39124 ft | 452 kts | 125° |
| 2026-05-01 07:29 | 47.43323 | 11.25824 | 39157 ft | 451 kts | 126° |
| 2026-05-01 07:30 | 47.39286 | 11.32904 | 39176 ft | 451 kts | 125° |
| 2026-05-01 07:30 | 47.35251 | 11.39963 | 39181 ft | 450 kts | 125° |
| 2026-05-01 07:31 | 47.31240 | 11.46964 | 39163 ft | 449 kts | 125° |
| 2026-05-01 07:32 | 47.21153 | 11.64485 | 39197 ft | 450 kts | 125° |
| 2026-05-01 07:33 | 47.15087 | 11.74971 | 39166 ft | 452 kts | 125° |
| 2026-05-01 07:33 | 47.08963 | 11.85555 | 39111 ft | 451 kts | 123° |
| 2026-05-01 07:34 | 47.07222 | 11.89325 | 39157 ft | 442 kts | 112° |
| 2026-05-01 07:34 | 47.04514 | 11.97400 | 39132 ft | 441 kts | 110° |
| 2026-05-01 07:35 | 47.01887 | 12.05458 | 39137 ft | 441 kts | 110° |
| 2026-05-01 07:35 | 46.99203 | 12.13559 | 39131 ft | 442 kts | 111° |
| 2026-05-01 07:36 | 46.96486 | 12.21652 | 39152 ft | 443 kts | 110° |
| 2026-05-01 07:36 | 46.93751 | 12.29746 | 39149 ft | 444 kts | 111° |
| 2026-05-01 07:37 | 46.89652 | 12.41828 | 39152 ft | 445 kts | 110° |
| 2026-05-01 07:37 | 46.86889 | 12.49944 | 39154 ft | 447 kts | 111° |
| 2026-05-01 07:38 | 46.84115 | 12.58068 | 39149 ft | 447 kts | 111° |
| 2026-05-01 07:39 | 46.79946 | 12.70227 | 39119 ft | 444 kts | 111° |
| 2026-05-01 07:39 | 46.75805 | 12.82255 | 39133 ft | 445 kts | 111° |
| 2026-05-01 07:40 | 46.73015 | 12.90329 | 39144 ft | 446 kts | 111° |
| 2026-05-01 07:40 | 46.70211 | 12.98414 | 39128 ft | 448 kts | 111° |
| 2026-05-01 07:41 | 46.67409 | 13.06468 | 39139 ft | 443 kts | 111° |
| 2026-05-01 07:42 | 46.63231 | 13.18439 | 39149 ft | 446 kts | 111° |
| 2026-05-01 07:42 | 46.60408 | 13.26500 | 39157 ft | 448 kts | 111° |
| 2026-05-01 07:43 | 46.57563 | 13.34597 | 39148 ft | 451 kts | 111° |
| 2026-05-01 07:43 | 46.52383 | 13.46099 | 39169 ft | 461 kts | 121° |
| 2026-05-01 07:44 | 46.44566 | 13.60957 | 39165 ft | 463 kts | 121° |
| 2026-05-01 07:45 | 46.40705 | 13.68396 | 39186 ft | 461 kts | 121° |
| 2026-05-01 07:45 | 46.36883 | 13.75784 | 39178 ft | 461 kts | 121° |
| 2026-05-01 07:46 | 46.33035 | 13.83206 | 39169 ft | 461 kts | 121° |
| 2026-05-01 07:47 | 46.27264 | 13.94295 | 39161 ft | 460 kts | 121° |
| 2026-05-01 07:47 | 46.23406 | 14.01683 | 39162 ft | 461 kts | 121° |
| 2026-05-01 07:48 | 46.17614 | 14.12736 | 39175 ft | 463 kts | 122° |
| 2026-05-01 07:48 | 46.13725 | 14.20132 | 39169 ft | 463 kts | 122° |
| 2026-05-01 07:49 | 46.07879 | 14.31212 | 39162 ft | 463 kts | 122° |
| 2026-05-01 07:50 | 46.03977 | 14.38584 | 39159 ft | 463 kts | 122° |
| 2026-05-01 07:50 | 45.98145 | 14.49566 | 39168 ft | 463 kts | 122° |
| 2026-05-01 07:51 | 45.94230 | 14.56915 | 39167 ft | 463 kts | 122° |
| 2026-05-01 07:52 | 45.88349 | 14.67918 | 39161 ft | 463 kts | 122° |
| 2026-05-01 07:52 | 45.84424 | 14.75238 | 39178 ft | 463 kts | 122° |
| 2026-05-01 07:53 | 45.78540 | 14.86176 | 39175 ft | 465 kts | 123° |
| 2026-05-01 07:53 | 45.74578 | 14.93517 | 39170 ft | 466 kts | 123° |
| 2026-05-01 07:55 | 45.64636 | 15.11853 | 39191 ft | 468 kts | 123° |
| 2026-05-01 07:56 | 45.54625 | 15.30199 | 39188 ft | 470 kts | 123° |
| 2026-05-01 07:57 | 45.48571 | 15.41233 | 39178 ft | 470 kts | 123° |
| 2026-05-01 07:58 | 45.40514 | 15.55856 | 39181 ft | 471 kts | 123° |
| 2026-05-01 07:59 | 45.32395 | 15.70515 | 39180 ft | 472 kts | 124° |
| 2026-05-01 08:00 | 45.20154 | 15.92377 | 39165 ft | 473 kts | 126° |
| 2026-05-01 08:01 | 45.11512 | 16.06489 | 39172 ft | 474 kts | 127° |
| 2026-05-01 08:02 | 45.05076 | 16.17046 | 39159 ft | 474 kts | 127° |
| 2026-05-01 08:03 | 44.98619 | 16.27627 | 39176 ft | 474 kts | 127° |
| 2026-05-01 08:03 | 44.92254 | 16.38324 | 39157 ft | 474 kts | 125° |
| 2026-05-01 08:04 | 44.83967 | 16.52745 | 39157 ft | 475 kts | 125° |
| 2026-05-01 08:05 | 44.77677 | 16.63565 | 39160 ft | 476 kts | 126° |
| 2026-05-01 08:06 | 44.71356 | 16.74378 | 39142 ft | 477 kts | 126° |
| 2026-05-01 08:07 | 44.62927 | 16.88737 | 39154 ft | 479 kts | 126° |
| 2026-05-01 08:08 | 44.56548 | 16.99556 | 39133 ft | 480 kts | 127° |
| 2026-05-01 08:09 | 44.48046 | 17.13914 | 39149 ft | 480 kts | 127° |
| 2026-05-01 08:09 | 44.43772 | 17.21103 | 39133 ft | 481 kts | 127° |
| 2026-05-01 08:10 | 44.35191 | 17.35485 | 39120 ft | 482 kts | 127° |
| 2026-05-01 08:11 | 44.26612 | 17.49791 | 39128 ft | 483 kts | 127° |
| 2026-05-01 08:12 | 44.20133 | 17.60549 | 39111 ft | 483 kts | 127° |
| 2026-05-01 08:13 | 44.13638 | 17.71292 | 39127 ft | 483 kts | 128° |
| 2026-05-01 08:13 | 44.07153 | 17.81979 | 39122 ft | 485 kts | 128° |
| 2026-05-01 08:14 | 44.02796 | 17.89137 | 39105 ft | 485 kts | 127° |
| 2026-05-01 08:14 | 43.98433 | 17.96288 | 39095 ft | 486 kts | 128° |
| 2026-05-01 08:15 | 43.91866 | 18.07007 | 39088 ft | 486 kts | 129° |
| 2026-05-01 08:16 | 43.87420 | 18.13984 | 39081 ft | 486 kts | 130° |
| 2026-05-01 08:16 | 43.82904 | 18.20977 | 39111 ft | 487 kts | 130° |
| 2026-05-01 08:17 | 43.78386 | 18.27991 | 39147 ft | 487 kts | 129° |
| 2026-05-01 08:17 | 43.76145 | 18.31472 | 39294 ft | 482 kts | 129° |
| 2026-05-01 08:17 | 43.73916 | 18.34936 | 39310 ft | 482 kts | 129° |
| 2026-05-01 08:18 | 43.69427 | 18.41899 | 39336 ft | 488 kts | 130° |
| 2026-05-01 08:19 | 43.60581 | 18.56174 | 39311 ft | 492 kts | 127° |
| 2026-05-01 08:19 | 43.56366 | 18.63637 | 39319 ft | 493 kts | 126° |
| 2026-05-01 08:20 | 43.52153 | 18.71050 | 39294 ft | 488 kts | 127° |
| 2026-05-01 08:20 | 43.47976 | 18.78307 | 39288 ft | 486 kts | 126° |
| 2026-05-01 08:21 | 43.43753 | 18.85601 | 39296 ft | 488 kts | 128° |
| 2026-05-01 08:21 | 43.39537 | 18.92860 | 39264 ft | 486 kts | 127° |
| 2026-05-01 08:22 | 43.35292 | 19.00153 | 39280 ft | 493 kts | 127° |
| 2026-05-01 08:22 | 43.30993 | 19.07522 | 39299 ft | 495 kts | 128° |
| 2026-05-01 08:23 | 43.26730 | 19.14812 | 39306 ft | 492 kts | 128° |
| 2026-05-01 08:23 | 43.22436 | 19.22136 | 39299 ft | 493 kts | 128° |
| 2026-05-01 08:24 | 43.18132 | 19.29459 | 39297 ft | 493 kts | 128° |
| 2026-05-01 08:24 | 43.13822 | 19.36774 | 39282 ft | 494 kts | 128° |
| 2026-05-01 08:25 | 43.09536 | 19.44031 | 39281 ft | 494 kts | 128° |
| 2026-05-01 08:25 | 43.05225 | 19.51311 | 39282 ft | 492 kts | 129° |
| 2026-05-01 08:26 | 43.00925 | 19.58556 | 39271 ft | 490 kts | 129° |
| 2026-05-01 08:26 | 42.96632 | 19.65770 | 39266 ft | 489 kts | 129° |
| 2026-05-01 08:27 | 42.92375 | 19.72908 | 39271 ft | 487 kts | 129° |
| 2026-05-01 08:27 | 42.88096 | 19.80065 | 39283 ft | 486 kts | 129° |
| 2026-05-01 08:28 | 42.83819 | 19.87201 | 39263 ft | 486 kts | 129° |
| 2026-05-01 08:28 | 42.79541 | 19.94324 | 39277 ft | 486 kts | 129° |
| 2026-05-01 08:29 | 42.75258 | 20.01438 | 39273 ft | 486 kts | 129° |
| 2026-05-01 08:29 | 42.70987 | 20.08507 | 39272 ft | 487 kts | 129° |
| 2026-05-01 08:30 | 42.66677 | 20.15618 | 39277 ft | 488 kts | 130° |
| 2026-05-01 08:30 | 42.63611 | 20.20671 | 39266 ft | 489 kts | 130° |
| 2026-05-01 08:31 | 42.59277 | 20.27799 | 39261 ft | 490 kts | 130° |
| 2026-05-01 08:31 | 42.54956 | 20.34890 | 39261 ft | 491 kts | 130° |
| 2026-05-01 08:32 | 42.50597 | 20.42024 | 39262 ft | 492 kts | 130° |
| 2026-05-01 08:32 | 42.46226 | 20.49164 | 39262 ft | 493 kts | 130° |
| 2026-05-01 08:33 | 42.41838 | 20.56311 | 39263 ft | 494 kts | 130° |
| 2026-05-01 08:33 | 42.37470 | 20.63411 | 39260 ft | 495 kts | 130° |
| 2026-05-01 08:34 | 42.33063 | 20.70557 | 39266 ft | 495 kts | 130° |
| 2026-05-01 08:34 | 42.28645 | 20.77702 | 39256 ft | 495 kts | 131° |
| 2026-05-01 08:35 | 42.24223 | 20.84838 | 39271 ft | 496 kts | 131° |
| 2026-05-01 08:35 | 42.19792 | 20.91971 | 39272 ft | 496 kts | 131° |
| 2026-05-01 08:36 | 42.15434 | 20.98974 | 39280 ft | 496 kts | 131° |
| 2026-05-01 08:36 | 42.10978 | 21.06068 | 39262 ft | 495 kts | 134° |
| 2026-05-01 08:37 | 42.06067 | 21.12542 | 39276 ft | 493 kts | 139° |
| 2026-05-01 08:37 | 42.01006 | 21.18778 | 39270 ft | 494 kts | 139° |
| 2026-05-01 08:38 | 41.95962 | 21.25039 | 39272 ft | 493 kts | 139° |
| 2026-05-01 08:38 | 41.90982 | 21.31297 | 39273 ft | 494 kts | 139° |
| 2026-05-01 08:39 | 41.85978 | 21.37603 | 39274 ft | 493 kts | 139° |
| 2026-05-01 08:39 | 41.80969 | 21.43903 | 39270 ft | 494 kts | 139° |
| 2026-05-01 08:40 | 41.73448 | 21.53326 | 39258 ft | 494 kts | 139° |
| 2026-05-01 08:40 | 41.68462 | 21.59554 | 39262 ft | 493 kts | 139° |
| 2026-05-01 08:41 | 41.63439 | 21.65813 | 39273 ft | 494 kts | 139° |
| 2026-05-01 08:41 | 41.58401 | 21.72078 | 39280 ft | 495 kts | 139° |
| 2026-05-01 08:42 | 41.53349 | 21.78345 | 39260 ft | 496 kts | 139° |
| 2026-05-01 08:42 | 41.48325 | 21.84566 | 39266 ft | 496 kts | 139° |
| 2026-05-01 08:43 | 41.43258 | 21.90825 | 39266 ft | 497 kts | 139° |
| 2026-05-01 08:43 | 41.38179 | 21.97085 | 39268 ft | 498 kts | 139° |
| 2026-05-01 08:44 | 41.33091 | 22.03342 | 39263 ft | 499 kts | 139° |
| 2026-05-01 08:44 | 41.27987 | 22.09606 | 39249 ft | 499 kts | 140° |
| 2026-05-01 08:45 | 41.22913 | 22.15819 | 39242 ft | 499 kts | 140° |
| 2026-05-01 08:45 | 41.17803 | 22.22065 | 39253 ft | 499 kts | 140° |
| 2026-05-01 08:46 | 41.12585 | 22.28093 | 39240 ft | 496 kts | 143° |
| 2026-05-01 08:46 | 41.07203 | 22.33817 | 39246 ft | 496 kts | 144° |
| 2026-05-01 08:47 | 41.01812 | 22.39517 | 39246 ft | 496 kts | 144° |
| 2026-05-01 08:47 | 40.96474 | 22.45214 | 39235 ft | 497 kts | 144° |
| 2026-05-01 08:48 | 40.91096 | 22.50974 | 39236 ft | 497 kts | 144° |
| 2026-05-01 08:48 | 40.85721 | 22.56721 | 39243 ft | 498 kts | 144° |
| 2026-05-01 08:49 | 40.81241 | 22.61499 | 39238 ft | 498 kts | 144° |
| 2026-05-01 08:49 | 40.74966 | 22.68176 | 39241 ft | 499 kts | 144° |
| 2026-05-01 08:50 | 40.69590 | 22.73885 | 39204 ft | 486 kts | 144° |
| 2026-05-01 08:50 | 40.66996 | 22.76641 | 39217 ft | 471 kts | 145° |
| 2026-05-01 08:50 | 40.64480 | 22.79309 | 39210 ft | 458 kts | 145° |
| 2026-05-01 08:51 | 40.60451 | 22.83572 | 39216 ft | 436 kts | 146° |
| 2026-05-01 08:51 | 40.58119 | 22.86034 | 39219 ft | 425 kts | 146° |
| 2026-05-01 08:51 | 40.55806 | 22.88469 | 39240 ft | 428 kts | 146° |
| 2026-05-01 08:52 | 40.50326 | 22.94230 | 39264 ft | 441 kts | 146° |
| 2026-05-01 08:52 | 40.46251 | 22.98368 | 39241 ft | 446 kts | 152° |
| 2026-05-01 08:53 | 40.43548 | 23.00315 | 39238 ft | 441 kts | 163° |
| 2026-05-01 08:53 | 40.40721 | 23.01757 | 39172 ft | 431 kts | 165° |
| 2026-05-01 08:53 | 40.37935 | 23.03102 | 38817 ft | 422 kts | 166° |
| 2026-05-01 08:53 | 40.35187 | 23.04417 | 38148 ft | 421 kts | 166° |
| 2026-05-01 08:54 | 40.32403 | 23.05756 | 36979 ft | 433 kts | 166° |
| 2026-05-01 08:54 | 40.29535 | 23.07150 | 35700 ft | 447 kts | 165° |
| 2026-05-01 08:54 | 40.26580 | 23.08602 | 34393 ft | 460 kts | 165° |
| 2026-05-01 08:54 | 40.23551 | 23.10105 | 32889 ft | 471 kts | 165° |
| 2026-05-01 08:55 | 40.20505 | 23.11623 | 31455 ft | 478 kts | 165° |
| 2026-05-01 08:55 | 40.17380 | 23.13181 | 30031 ft | 482 kts | 165° |
| 2026-05-01 08:55 | 40.14239 | 23.14743 | 28467 ft | 483 kts | 164° |
| 2026-05-01 08:55 | 40.11103 | 23.16297 | 27007 ft | 481 kts | 164° |
| 2026-05-01 08:56 | 40.07990 | 23.17836 | 25686 ft | 476 kts | 163° |
| 2026-05-01 08:56 | 40.04917 | 23.19353 | 24562 ft | 467 kts | 163° |
| 2026-05-01 08:56 | 40.01919 | 23.20832 | 23480 ft | 456 kts | 162° |
| 2026-05-01 08:56 | 39.98983 | 23.22279 | 22208 ft | 447 kts | 163° |
| 2026-05-01 08:57 | 39.96086 | 23.23703 | 20904 ft | 442 kts | 163° |
| 2026-05-01 08:57 | 39.93267 | 23.25088 | 19746 ft | 435 kts | 162° |
| 2026-05-01 08:57 | 39.90473 | 23.26459 | 18661 ft | 428 kts | 162° |
| 2026-05-01 08:57 | 39.87710 | 23.27808 | 17456 ft | 421 kts | 162° |
| 2026-05-01 08:58 | 39.84989 | 23.29131 | 16291 ft | 415 kts | 162° |
| 2026-05-01 08:58 | 39.82332 | 23.30421 | 15600 ft | 399 kts | 162° |
| 2026-05-01 08:58 | 39.79779 | 23.31661 | 14924 ft | 386 kts | 162° |
| 2026-05-01 08:58 | 39.77289 | 23.32869 | 14290 ft | 378 kts | 162° |
| 2026-05-01 08:59 | 39.74846 | 23.34052 | 13622 ft | 371 kts | 162° |
| 2026-05-01 08:59 | 39.72418 | 23.35228 | 12966 ft | 379 kts | 162° |
| 2026-05-01 08:59 | 39.69926 | 23.36439 | 12303 ft | 391 kts | 162° |
| 2026-05-01 08:59 | 39.67402 | 23.37674 | 11626 ft | 382 kts | 162° |
| 2026-05-01 09:00 | 39.64979 | 23.38864 | 11237 ft | 360 kts | 162° |
| 2026-05-01 09:00 | 39.62715 | 23.39976 | 11089 ft | 338 kts | 162° |
| 2026-05-01 09:00 | 39.60553 | 23.41035 | 10959 ft | 329 kts | 162° |
| 2026-05-01 09:00 | 39.58413 | 23.42077 | 10833 ft | 331 kts | 162° |
| 2026-05-01 09:01 | 39.56257 | 23.43125 | 10697 ft | 329 kts | 162° |
| 2026-05-01 09:01 | 39.54147 | 23.44153 | 10539 ft | 319 kts | 162° |
| 2026-05-01 09:01 | 39.52107 | 23.45148 | 10406 ft | 308 kts | 163° |
| 2026-05-01 09:01 | 39.50152 | 23.46095 | 10276 ft | 299 kts | 163° |
| 2026-05-01 09:02 | 39.48221 | 23.47032 | 10028 ft | 295 kts | 164° |
| 2026-05-01 09:02 | 39.46310 | 23.47967 | 9724 ft | 293 kts | 162° |
| 2026-05-01 09:02 | 39.44408 | 23.48891 | 9409 ft | 290 kts | 162° |
| 2026-05-01 09:02 | 39.42525 | 23.49801 | 9109 ft | 288 kts | 162° |
| 2026-05-01 09:03 | 39.40655 | 23.50701 | 8812 ft | 285 kts | 163° |
| 2026-05-01 09:03 | 39.38798 | 23.51588 | 8515 ft | 284 kts | 162° |
| 2026-05-01 09:03 | 39.36954 | 23.52482 | 8207 ft | 283 kts | 161° |
| 2026-05-01 09:03 | 39.35118 | 23.53374 | 7924 ft | 281 kts | 160° |
| 2026-05-01 09:04 | 39.33295 | 23.54256 | 7642 ft | 279 kts | 160° |
| 2026-05-01 09:04 | 39.31498 | 23.55122 | 7359 ft | 280 kts | 159° |
| 2026-05-01 09:04 | 39.29662 | 23.56008 | 7037 ft | 283 kts | 158° |
| 2026-05-01 09:04 | 39.27818 | 23.56897 | 6729 ft | 283 kts | 158° |
| 2026-05-01 09:05 | 39.25980 | 23.57782 | 6424 ft | 282 kts | 157° |
| 2026-05-01 09:05 | 39.24144 | 23.58667 | 6128 ft | 282 kts | 156° |
| 2026-05-01 09:05 | 39.22297 | 23.59560 | 5780 ft | 285 kts | 155° |
| 2026-05-01 09:05 | 39.20436 | 23.60459 | 5498 ft | 286 kts | 155° |
| 2026-05-01 09:06 | 39.18538 | 23.61216 | 5133 ft | 298 kts | 171° |
| 2026-05-01 09:06 | 39.16508 | 23.60715 | 4872 ft | 300 kts | 204° |
| 2026-05-01 09:06 | 39.14685 | 23.59470 | 4557 ft | 296 kts | 207° |
| 2026-05-01 09:06 | 39.12888 | 23.58250 | 4174 ft | 287 kts | 206° |
| 2026-05-01 09:07 | 39.11153 | 23.57090 | 3897 ft | 274 kts | 205° |
| 2026-05-01 09:07 | 39.09528 | 23.56017 | 3786 ft | 251 kts | 205° |
| 2026-05-01 09:07 | 39.08041 | 23.55042 | 3646 ft | 229 kts | 205° |
| 2026-05-01 09:07 | 39.06683 | 23.54154 | 3536 ft | 211 kts | 205° |
| 2026-05-01 09:08 | 39.05415 | 23.53327 | 3447 ft | 200 kts | 205° |
| 2026-05-01 09:08 | 39.04167 | 23.52515 | 3395 ft | 203 kts | 205° |
| 2026-05-01 09:08 | 39.02911 | 23.51680 | 3329 ft | 210 kts | 211° |
| 2026-05-01 09:08 | 39.02006 | 23.50237 | 3170 ft | 211 kts | 256° |
| 2026-05-01 09:09 | 39.02112 | 23.48455 | 2950 ft | 197 kts | 304° |
| 2026-05-01 09:09 | 39.03083 | 23.47418 | 2759 ft | 175 kts | 351° |
| 2026-05-01 09:09 | 39.04259 | 23.47207 | 2567 ft | 172 kts | 355° |
| 2026-05-01 09:09 | 39.05432 | 23.46967 | 2352 ft | 168 kts | 5° |
| 2026-05-01 09:10 | 39.06545 | 23.47137 | 2152 ft | 155 kts | 13° |
| 2026-05-01 09:10 | 39.07532 | 23.47384 | 1976 ft | 134 kts | 16° |
| 2026-05-01 09:10 | 39.08426 | 23.47542 | 1691 ft | 129 kts | 6° |
| 2026-05-01 09:10 | 39.09312 | 23.47541 | 1553 ft | 128 kts | 4° |
| 2026-05-01 09:11 | 39.10202 | 23.47539 | 1339 ft | 128 kts | 6° |
| 2026-05-01 09:11 | 39.11072 | 23.47650 | 1158 ft | 127 kts | 12° |
| 2026-05-01 09:11 | 39.11938 | 23.47797 | 1032 ft | 122 kts | 13° |
| 2026-05-01 09:11 | 39.12745 | 23.48050 | 871 ft | 120 kts | 22° |
| 2026-05-01 09:12 | 39.13526 | 23.48448 | 753 ft | 119 kts | 25° |
| 2026-05-01 09:12 | 39.14301 | 23.48833 | 602 ft | 121 kts | 22° |
| 2026-05-01 09:12 | 39.15114 | 23.49173 | 446 ft | 123 kts | 20° |
| 2026-05-01 09:12 | 39.15920 | 23.49558 | 296 ft | 123 kts | 25° |
| 2026-05-01 09:13 | 39.16735 | 23.49940 | 102 ft | 124 kts | 19° |
| 2026-05-01 09:13 | 39.17513 | 23.50281 | 39 ft | 107 kts | 17° |
| 2026-05-01 09:13 | 39.18009 | 23.50502 | 46 ft | 43 kts | 19° |
| 2026-05-01 09:13 | 39.18220 | 23.50597 | 52 ft | 30 kts | 19° |
| 2026-05-01 09:14 | 39.18411 | 23.50666 | 53 ft | 24 kts | 18° |
| 2026-05-01 09:14 | 39.18511 | 23.50746 | 56 ft | 8 kts | 347° |
| 2026-05-01 09:14 | 39.18529 | 23.50731 | 58 ft | 3 kts | 309° |
| 2026-05-01 09:14 | 39.18471 | 23.50706 | 57 ft | 15 kts | 178° |
| 2026-05-01 09:15 | 39.18375 | 23.50664 | 58 ft | 25 kts | 199° |
| 2026-05-01 09:15 | 39.18120 | 23.50550 | 49 ft | 45 kts | 199° |
| 2026-05-01 09:15 | 39.17940 | 23.50435 | 41 ft | 26 kts | 239° |
| 2026-05-01 09:15 | 39.17854 | 23.50310 | 38 ft | 12 kts | 200° |
| 2026-05-01 09:16 | 39.17824 | 23.50255 | 38 ft | 9 kts | 287° |
| 2026-05-01 09:16 | 39.17837 | 23.50209 | 36 ft | 0 kts | 289° |